createdAt,value
2023-03-22T00:00:57.442Z,78.50
2023-03-22T00:06:00.228Z,78.54
2023-03-22T00:11:03.512Z,78.73
2023-03-22T00:16:07.379Z,78.97
2023-03-22T00:21:16.108Z,78.95
2023-03-22T00:26:19.081Z,79.51
2023-03-22T00:31:21.862Z,79.38
2023-03-22T00:36:24.714Z,79.69
2023-03-22T00:41:28.797Z,79.22
2023-03-22T00:46:31.670Z,79.70
2023-03-22T00:51:36.453Z,79.95
2023-03-22T00:56:39.283Z,80.30
2023-03-22T01:01:42.955Z,81.34
2023-03-22T01:06:47.156Z,81.35
2023-03-22T01:11:49.915Z,81.46
2023-03-22T01:16:57.690Z,81.50
2023-03-22T01:22:01.231Z,81.64
2023-03-22T01:27:04.018Z,81.89
2023-03-22T01:32:06.832Z,82.86
2023-03-22T01:37:09.619Z,83.47
2023-03-22T01:42:17.307Z,83.32
2023-03-22T01:47:23.619Z,83.45
2023-03-22T01:52:26.615Z,83.06
2023-03-22T01:57:29.720Z,83.20
2023-03-22T02:02:32.751Z,83.27
2023-03-22T02:07:39.229Z,83.07
2023-03-22T02:13:15.484Z,83.40
2023-03-22T02:18:42.870Z,83.52
2023-03-22T02:24:04.334Z,83.73
2023-03-22T02:29:30.201Z,83.90
2023-03-22T02:35:00.798Z,83.90
2023-03-22T02:40:40.292Z,83.75
2023-03-22T02:46:01.803Z,83.73
2023-03-22T02:51:15.505Z,83.88
2023-03-22T02:56:41.593Z,84.33
2023-03-22T03:01:50.486Z,84.45
2023-03-22T03:07:00.486Z,84.79
2023-03-22T03:12:13.653Z,85.05
2023-03-22T03:17:57.643Z,85.50
2023-03-22T03:23:19.971Z,86.13
2023-03-22T03:28:38.568Z,86.30
2023-03-22T03:33:52.012Z,86.62
2023-03-22T03:38:58.224Z,86.88
2023-03-22T03:44:02.405Z,87.28
2023-03-22T03:49:07.654Z,87.90
2023-03-22T03:54:10.499Z,87.96
2023-03-22T03:59:16.063Z,87.66
2023-03-22T04:04:29.526Z,87.63
2023-03-22T04:09:35.766Z,87.73
2023-03-22T04:14:39.454Z,87.36
2023-03-22T04:19:44.757Z,87.05
2023-03-22T04:24:50.243Z,86.92
2023-03-22T04:29:54.690Z,86.99
2023-03-22T04:34:58.989Z,86.79
2023-03-22T04:40:02.031Z,86.60
2023-03-22T04:45:05.337Z,86.83
2023-03-22T04:50:09.037Z,86.94
2023-03-22T04:55:11.777Z,86.77
2023-03-22T05:00:15.718Z,87.03
2023-03-22T05:05:18.900Z,87.57
2023-03-22T05:10:21.740Z,86.95
2023-03-22T05:15:24.558Z,86.52
2023-03-22T05:20:27.835Z,86.49
2023-03-22T05:25:30.682Z,86.52
2023-03-22T05:30:33.836Z,86.66
2023-03-22T05:35:39.141Z,86.69
2023-03-22T05:40:43.137Z,86.61
2023-03-22T05:45:48.206Z,86.53
2023-03-22T05:50:51.023Z,86.85
2023-03-22T05:55:57.720Z,86.85
2023-03-22T06:01:13.270Z,86.97
2023-03-22T06:06:16.254Z,86.94
2023-03-22T06:11:19.917Z,87.12
2023-03-22T06:16:22.681Z,86.83
2023-03-22T06:21:25.910Z,86.39
2023-03-22T06:26:28.822Z,86.51
2023-03-22T06:31:31.617Z,86.58
2023-03-22T06:36:34.352Z,86.98
2023-03-22T06:41:37.769Z,87.78
2023-03-22T06:46:40.576Z,88.14
2023-03-22T06:51:43.889Z,87.86
2023-03-22T06:56:47.041Z,88.10
2023-03-22T07:02:02.737Z,88.23
2023-03-22T07:07:08.597Z,88.40
2023-03-22T07:12:44.497Z,88.34
2023-03-22T07:18:22.956Z,88.29
2023-03-22T07:23:42.950Z,88.62
2023-03-22T07:28:58.348Z,88.40
2023-03-22T07:34:11.560Z,88.45
2023-03-22T07:39:14.591Z,89.12
2023-03-22T07:44:18.612Z,89.40
2023-03-22T07:49:27.286Z,90.10
2023-03-22T07:54:34.113Z,89.93
2023-03-22T07:59:39.881Z,89.81
2023-03-22T08:04:42.935Z,90.05
2023-03-22T08:10:11.957Z,90.31
2023-03-22T08:22:26.036Z,90.03
2023-03-22T08:27:28.916Z,90.38
2023-03-22T08:32:33.643Z,92.04
2023-03-22T08:37:36.488Z,93.43
2023-03-22T08:42:39.506Z,93.89
2023-03-22T08:47:44.411Z,94.02
2023-03-22T08:52:47.204Z,94.25
2023-03-22T08:57:50.524Z,94.48
2023-03-22T09:02:53.455Z,94.48
2023-03-22T09:08:04.963Z,94.64
2023-03-22T09:13:10.363Z,94.89
2023-03-22T09:18:14.581Z,95.08
2023-03-22T09:23:17.502Z,95.47
2023-03-22T09:28:20.379Z,95.64
2023-03-22T09:33:25.351Z,95.71
2023-03-22T09:38:28.227Z,95.86
2023-03-22T09:43:45.882Z,96.20
2023-03-22T09:48:50.875Z,96.49
2023-03-22T09:53:54.132Z,96.56
2023-03-22T09:59:23.104Z,96.37
2023-03-22T10:05:03.458Z,96.51
2023-03-22T10:10:20.906Z,96.59
2023-03-22T10:15:49.221Z,96.36
2023-03-22T10:21:00.118Z,96.20
2023-03-22T10:26:05.034Z,96.12
2023-03-22T10:31:15.854Z,96.51
2023-03-22T10:36:45.845Z,96.89
2023-03-22T10:41:51.275Z,97.03
2023-03-22T10:46:57.904Z,96.93
2023-03-22T10:52:49.735Z,97.07
2023-03-22T10:58:14.803Z,97.33
2023-03-22T11:03:35.331Z,97.60
2023-03-22T11:08:51.141Z,97.87
2023-03-22T11:14:00.210Z,97.95
2023-03-22T11:19:03.583Z,98.24
2023-03-22T11:24:08.263Z,98.29
2023-03-22T11:29:19.008Z,98.38
2023-03-22T11:34:24.490Z,98.11
2023-03-22T11:39:28.938Z,98.73
2023-03-22T11:44:36.667Z,99.02
2023-03-22T11:49:52.060Z,99.31
2023-03-22T11:55:04.132Z,99.53
2023-03-22T12:00:26.741Z,99.37
2023-03-22T12:05:37.280Z,99.46
2023-03-22T12:10:43.994Z,99.31
2023-03-22T12:15:56.616Z,99.34
2023-03-22T12:21:01.627Z,99.23
2023-03-22T12:26:08.514Z,99.13
2023-03-22T12:31:21.802Z,99.26
2023-03-22T12:36:34.973Z,99.32
2023-03-22T12:41:42.636Z,99.34
2023-03-22T12:46:52.821Z,99.10
2023-03-22T12:52:06.636Z,98.78
2023-03-22T12:57:19.430Z,98.23
2023-03-22T13:02:33.071Z,97.90
2023-03-22T13:07:48.291Z,97.58
2023-03-22T13:13:16.443Z,97.73
2023-03-22T13:18:53.303Z,97.37
2023-03-22T13:24:15.479Z,97.06
2023-03-22T13:29:36.668Z,97.13
2023-03-22T13:34:46.551Z,97.47
2023-03-22T13:39:55.151Z,97.76
2023-03-22T13:45:04.831Z,98.11
2023-03-22T13:50:25.565Z,97.89
2023-03-22T13:55:46.160Z,98.45
2023-03-22T14:00:56.156Z,98.15
2023-03-22T14:06:30.342Z,98.00
2023-03-22T14:11:44.426Z,98.13
2023-03-22T14:17:34.152Z,97.35
